sensor_id;sensor_type;location;lat;lon;timestamp;temperature;humidity
5808;DHT22;2930;42.678;23.312;2023-04-09T00:01:53;7.10;95.30
5808;DHT22;2930;42.678;23.312;2023-04-09T00:04:19;7.20;95.20
5808;DHT22;2930;42.678;23.312;2023-04-09T00:06:46;7.20;95.00
5808;DHT22;2930;42.678;23.312;2023-04-09T00:09:12;7.20;94.70
5808;DHT22;2930;42.678;23.312;2023-04-09T00:11:38;7.20;94.70
5808;DHT22;2930;42.678;23.312;2023-04-09T00:14:03;7.10;94.90
5808;DHT22;2930;42.678;23.312;2023-04-09T00:16:29;7.20;94.90
5808;DHT22;2930;42.678;23.312;2023-04-09T00:18:54;7.30;94.60
5808;DHT22;2930;42.678;23.312;2023-04-09T00:21:20;7.30;94.70
5808;DHT22;2930;42.678;23.312;2023-04-09T00:23:46;7.20;95.20
5808;DHT22;2930;42.678;23.312;2023-04-09T00:26:12;7.20;95.20
5808;DHT22;2930;42.678;23.312;2023-04-09T00:28:37;7.20;95.50
5808;DHT22;2930;42.678;23.312;2023-04-09T00:31:03;7.20;95.20
5808;DHT22;2930;42.678;23.312;2023-04-09T00:33:29;7.30;94.90
5808;DHT22;2930;42.678;23.312;2023-04-09T00:35:54;7.30;94.90
5808;DHT22;2930;42.678;23.312;2023-04-09T00:38:20;7.30;95.10
5808;DHT22;2930;42.678;23.312;2023-04-09T00:40:49;7.40;95.00
5808;DHT22;2930;42.678;23.312;2023-04-09T00:43:16;7.40;94.90
5808;DHT22;2930;42.678;23.312;2023-04-09T00:45:43;7.40;94.90
5808;DHT22;2930;42.678;23.312;2023-04-09T00:48:09;7.40;94.70
5808;DHT22;2930;42.678;23.312;2023-04-09T00:50:35;7.40;94.50
5808;DHT22;2930;42.678;23.312;2023-04-09T00:53:01;7.40;94.30
5808;DHT22;2930;42.678;23.312;2023-04-09T00:55:27;7.50;94.40
5808;DHT22;2930;42.678;23.312;2023-04-09T00:57:53;7.40;94.40
5808;DHT22;2930;42.678;23.312;2023-04-09T01:00:19;7.40;94.60
5808;DHT22;2930;42.678;23.312;2023-04-09T01:02:45;7.40;94.30
5808;DHT22;2930;42.678;23.312;2023-04-09T01:05:11;7.40;94.50
5808;DHT22;2930;42.678;23.312;2023-04-09T01:07:51;7.40;94.40
5808;DHT22;2930;42.678;23.312;2023-04-09T01:15:31;7.30;94.20
5808;DHT22;2930;42.678;23.312;2023-04-09T01:18:05;7.30;94.20
5808;DHT22;2930;42.678;23.312;2023-04-09T01:20:41;7.20;94.50
5808;DHT22;2930;42.678;23.312;2023-04-09T01:26:13;7.20;94.70
5808;DHT22;2930;42.678;23.312;2023-04-09T01:28:44;7.20;94.50
5808;DHT22;2930;42.678;23.312;2023-04-09T01:31:14;7.20;94.50
5808;DHT22;2930;42.678;23.312;2023-04-09T01:33:40;7.20;94.50
5808;DHT22;2930;42.678;23.312;2023-04-09T01:36:07;7.20;95.10
5808;DHT22;2930;42.678;23.312;2023-04-09T01:38:35;7.10;95.70
5808;DHT22;2930;42.678;23.312;2023-04-09T01:41:02;6.90;96.50
5808;DHT22;2930;42.678;23.312;2023-04-09T01:43:29;7.00;96.30
5808;DHT22;2930;42.678;23.312;2023-04-09T01:45:56;7.00;96.20
5808;DHT22;2930;42.678;23.312;2023-04-09T01:48:24;6.80;96.80
5808;DHT22;2930;42.678;23.312;2023-04-09T01:50:50;6.80;97.20
5808;DHT22;2930;42.678;23.312;2023-04-09T01:53:16;6.80;97.10
5808;DHT22;2930;42.678;23.312;2023-04-09T01:55:42;6.90;96.50
5808;DHT22;2930;42.678;23.312;2023-04-09T01:58:08;7.10;95.80
5808;DHT22;2930;42.678;23.312;2023-04-09T02:00:37;7.10;95.30
5808;DHT22;2930;42.678;23.312;2023-04-09T02:03:37;7.20;95.20
5808;DHT22;2930;42.678;23.312;2023-04-09T02:06:13;7.20;95.10
5808;DHT22;2930;42.678;23.312;2023-04-09T02:08:43;7.20;94.70
5808;DHT22;2930;42.678;23.312;2023-04-09T02:11:10;7.00;95.80
5808;DHT22;2930;42.678;23.312;2023-04-09T02:13:39;6.80;96.40
5808;DHT22;2930;42.678;23.312;2023-04-09T02:16:06;6.70;97.10
5808;DHT22;2930;42.678;23.312;2023-04-09T02:18:33;6.60;97.60
5808;DHT22;2930;42.678;23.312;2023-04-09T02:20:59;6.50;97.80
5808;DHT22;2930;42.678;23.312;2023-04-09T02:23:25;6.50;97.70
5808;DHT22;2930;42.678;23.312;2023-04-09T02:25:56;6.60;97.70
5808;DHT22;2930;42.678;23.312;2023-04-09T02:28:22;6.70;97.00
5808;DHT22;2930;42.678;23.312;2023-04-09T02:30:47;6.70;96.60
5808;DHT22;2930;42.678;23.312;2023-04-09T02:33:13;6.80;96.40
5808;DHT22;2930;42.678;23.312;2023-04-09T02:35:39;6.90;96.10
5808;DHT22;2930;42.678;23.312;2023-04-09T02:38:04;6.80;96.10
5808;DHT22;2930;42.678;23.312;2023-04-09T02:40:30;6.60;96.60
5808;DHT22;2930;42.678;23.312;2023-04-09T02:42:56;6.60;96.90
5808;DHT22;2930;42.678;23.312;2023-04-09T02:45:22;6.70;96.50
5808;DHT22;2930;42.678;23.312;2023-04-09T02:47:47;6.70;96.20
5808;DHT22;2930;42.678;23.312;2023-04-09T02:50:13;6.80;96.10
5808;DHT22;2930;42.678;23.312;2023-04-09T02:52:39;6.70;96.10
5808;DHT22;2930;42.678;23.312;2023-04-09T02:55:05;6.70;96.00
5808;DHT22;2930;42.678;23.312;2023-04-09T02:57:30;6.70;96.00
5808;DHT22;2930;42.678;23.312;2023-04-09T02:59:57;6.80;95.80
5808;DHT22;2930;42.678;23.312;2023-04-09T03:02:23;6.80;95.50
5808;DHT22;2930;42.678;23.312;2023-04-09T03:04:49;6.80;95.50
5808;DHT22;2930;42.678;23.312;2023-04-09T03:07:15;6.70;95.10
5808;DHT22;2930;42.678;23.312;2023-04-09T03:09:40;6.80;95.20
5808;DHT22;2930;42.678;23.312;2023-04-09T03:12:06;6.70;95.20
5808;DHT22;2930;42.678;23.312;2023-04-09T03:14:31;6.70;95.20
5808;DHT22;2930;42.678;23.312;2023-04-09T03:16:57;6.70;95.20
5808;DHT22;2930;42.678;23.312;2023-04-09T03:19:23;6.70;95.20
5808;DHT22;2930;42.678;23.312;2023-04-09T03:21:48;6.70;95.30
5808;DHT22;2930;42.678;23.312;2023-04-09T03:24:16;6.70;95.30
5808;DHT22;2930;42.678;23.312;2023-04-09T03:26:41;6.70;95.50
5808;DHT22;2930;42.678;23.312;2023-04-09T03:29:07;6.70;95.40
5808;DHT22;2930;42.678;23.312;2023-04-09T03:31:33;6.60;95.40
5808;DHT22;2930;42.678;23.312;2023-04-09T03:33:58;6.60;95.30
5808;DHT22;2930;42.678;23.312;2023-04-09T03:36:24;6.60;95.40
5808;DHT22;2930;42.678;23.312;2023-04-09T03:38:52;6.50;95.50
5808;DHT22;2930;42.678;23.312;2023-04-09T03:41:17;6.50;95.50
5808;DHT22;2930;42.678;23.312;2023-04-09T03:43:43;6.50;95.40
5808;DHT22;2930;42.678;23.312;2023-04-09T03:46:13;6.50;95.50
5808;DHT22;2930;42.678;23.312;2023-04-09T03:48:40;6.50;95.40
5808;DHT22;2930;42.678;23.312;2023-04-09T03:51:11;6.50;95.40
5808;DHT22;2930;42.678;23.312;2023-04-09T03:53:37;6.40;95.50
5808;DHT22;2930;42.678;23.312;2023-04-09T03:56:03;6.30;96.00
5808;DHT22;2930;42.678;23.312;2023-04-09T03:58:29;6.30;95.90
5808;DHT22;2930;42.678;23.312;2023-04-09T04:00:55;6.30;96.10
5808;DHT22;2930;42.678;23.312;2023-04-09T04:03:20;6.30;96.20
5808;DHT22;2930;42.678;23.312;2023-04-09T04:05:46;6.30;96.40
5808;DHT22;2930;42.678;23.312;2023-04-09T04:08:12;6.30;96.50
5808;DHT22;2930;42.678;23.312;2023-04-09T04:10:37;6.20;96.60
5808;DHT22;2930;42.678;23.312;2023-04-09T04:13:05;6.20;96.60
5808;DHT22;2930;42.678;23.312;2023-04-09T04:15:31;6.20;96.50
5808;DHT22;2930;42.678;23.312;2023-04-09T04:17:56;6.20;96.60
5808;DHT22;2930;42.678;23.312;2023-04-09T04:20:22;6.20;96.80
5808;DHT22;2930;42.678;23.312;2023-04-09T04:22:48;6.30;96.60
5808;DHT22;2930;42.678;23.312;2023-04-09T04:25:13;6.20;96.60
5808;DHT22;2930;42.678;23.312;2023-04-09T04:27:42;6.20;96.70
5808;DHT22;2930;42.678;23.312;2023-04-09T04:30:08;6.30;96.70
5808;DHT22;2930;42.678;23.312;2023-04-09T04:32:34;6.30;96.80
5808;DHT22;2930;42.678;23.312;2023-04-09T04:34:59;6.30;96.60
5808;DHT22;2930;42.678;23.312;2023-04-09T04:37:25;6.30;96.60
5808;DHT22;2930;42.678;23.312;2023-04-09T04:39:51;6.40;96.60
5808;DHT22;2930;42.678;23.312;2023-04-09T04:42:17;6.50;96.30
5808;DHT22;2930;42.678;23.312;2023-04-09T04:44:43;6.50;96.10
5808;DHT22;2930;42.678;23.312;2023-04-09T04:47:09;6.50;96.50
5808;DHT22;2930;42.678;23.312;2023-04-09T04:49:34;6.60;96.30
5808;DHT22;2930;42.678;23.312;2023-04-09T04:52:00;6.60;96.40
5808;DHT22;2930;42.678;23.312;2023-04-09T04:54:26;6.70;96.40
5808;DHT22;2930;42.678;23.312;2023-04-09T04:56:52;6.80;96.30
5808;DHT22;2930;42.678;23.312;2023-04-09T04:59:17;6.90;96.00
5808;DHT22;2930;42.678;23.312;2023-04-09T05:01:43;7.00;95.60
5808;DHT22;2930;42.678;23.312;2023-04-09T05:04:08;7.10;95.50
5808;DHT22;2930;42.678;23.312;2023-04-09T05:06:34;7.20;95.30
5808;DHT22;2930;42.678;23.312;2023-04-09T05:09:00;7.30;94.80
5808;DHT22;2930;42.678;23.312;2023-04-09T05:11:26;7.50;94.60
5808;DHT22;2930;42.678;23.312;2023-04-09T05:13:52;7.60;94.20
5808;DHT22;2930;42.678;23.312;2023-04-09T05:16:19;7.70;93.60
5808;DHT22;2930;42.678;23.312;2023-04-09T05:18:45;7.80;93.40
5808;DHT22;2930;42.678;23.312;2023-04-09T05:21:11;7.90;93.10
5808;DHT22;2930;42.678;23.312;2023-04-09T05:23:37;7.90;93.10
5808;DHT22;2930;42.678;23.312;2023-04-09T05:26:02;8.00;92.70
5808;DHT22;2930;42.678;23.312;2023-04-09T05:28:28;8.10;92.60
5808;DHT22;2930;42.678;23.312;2023-04-09T05:30:54;8.10;92.50
5808;DHT22;2930;42.678;23.312;2023-04-09T05:33:19;8.10;92.70
5808;DHT22;2930;42.678;23.312;2023-04-09T05:35:45;8.10;92.70
5808;DHT22;2930;42.678;23.312;2023-04-09T05:38:11;8.10;92.80
5808;DHT22;2930;42.678;23.312;2023-04-09T05:40:38;8.20;92.40
5808;DHT22;2930;42.678;23.312;2023-04-09T05:43:04;8.20;92.50
5808;DHT22;2930;42.678;23.312;2023-04-09T05:45:30;8.30;92.50
5808;DHT22;2930;42.678;23.312;2023-04-09T05:47:55;8.40;92.10
5808;DHT22;2930;42.678;23.312;2023-04-09T05:50:21;8.50;91.80
5808;DHT22;2930;42.678;23.312;2023-04-09T05:52:47;8.50;91.50
5808;DHT22;2930;42.678;23.312;2023-04-09T05:55:13;8.60;90.90
5808;DHT22;2930;42.678;23.312;2023-04-09T05:57:38;8.70;90.50
5808;DHT22;2930;42.678;23.312;2023-04-09T06:00:05;8.80;90.20
5808;DHT22;2930;42.678;23.312;2023-04-09T06:02:31;8.90;89.80
5808;DHT22;2930;42.678;23.312;2023-04-09T06:04:56;8.90;89.70
5808;DHT22;2930;42.678;23.312;2023-04-09T06:07:22;9.00;89.40
5808;DHT22;2930;42.678;23.312;2023-04-09T06:09:47;9.10;89.10
5808;DHT22;2930;42.678;23.312;2023-04-09T06:12:13;9.10;88.90
5808;DHT22;2930;42.678;23.312;2023-04-09T06:14:40;9.20;88.90
5808;DHT22;2930;42.678;23.312;2023-04-09T06:17:05;9.40;88.40
5808;DHT22;2930;42.678;23.312;2023-04-09T06:19:31;9.50;87.60
5808;DHT22;2930;42.678;23.312;2023-04-09T06:21:57;9.60;86.70
5808;DHT22;2930;42.678;23.312;2023-04-09T06:24:22;9.60;86.30
5808;DHT22;2930;42.678;23.312;2023-04-09T06:26:48;9.70;86.50
5808;DHT22;2930;42.678;23.312;2023-04-09T06:29:14;9.70;85.60
5808;DHT22;2930;42.678;23.312;2023-04-09T06:31:40;9.70;85.60
5808;DHT22;2930;42.678;23.312;2023-04-09T06:34:06;9.70;85.00
5808;DHT22;2930;42.678;23.312;2023-04-09T06:36:32;9.80;85.50
5808;DHT22;2930;42.678;23.312;2023-04-09T06:38:58;9.90;84.70
5808;DHT22;2930;42.678;23.312;2023-04-09T06:41:24;10.00;85.10
5808;DHT22;2930;42.678;23.312;2023-04-09T06:43:51;10.20;85.30
5808;DHT22;2930;42.678;23.312;2023-04-09T06:46:16;10.30;84.00
5808;DHT22;2930;42.678;23.312;2023-04-09T06:48:44;10.30;83.90
5808;DHT22;2930;42.678;23.312;2023-04-09T06:51:11;10.50;84.30
5808;DHT22;2930;42.678;23.312;2023-04-09T06:53:38;10.70;84.20
5808;DHT22;2930;42.678;23.312;2023-04-09T06:56:04;10.80;83.60
5808;DHT22;2930;42.678;23.312;2023-04-09T06:58:29;11.00;82.00
5808;DHT22;2930;42.678;23.312;2023-04-09T07:00:55;11.00;81.80
5808;DHT22;2930;42.678;23.312;2023-04-09T07:03:21;11.00;80.30
5808;DHT22;2930;42.678;23.312;2023-04-09T07:05:47;10.90;79.20
5808;DHT22;2930;42.678;23.312;2023-04-09T07:08:13;10.80;79.30
5808;DHT22;2930;42.678;23.312;2023-04-09T07:10:39;10.60;79.50
5808;DHT22;2930;42.678;23.312;2023-04-09T07:13:05;10.70;80.60
5808;DHT22;2930;42.678;23.312;2023-04-09T07:15:31;10.80;80.90
5808;DHT22;2930;42.678;23.312;2023-04-09T07:17:57;10.90;80.90
5808;DHT22;2930;42.678;23.312;2023-04-09T07:20:23;10.90;80.50
5808;DHT22;2930;42.678;23.312;2023-04-09T07:22:48;11.00;80.50
5808;DHT22;2930;42.678;23.312;2023-04-09T07:25:15;11.00;79.80
5808;DHT22;2930;42.678;23.312;2023-04-09T07:27:41;11.00;80.10
5808;DHT22;2930;42.678;23.312;2023-04-09T07:30:08;11.00;80.00
5808;DHT22;2930;42.678;23.312;2023-04-09T07:32:35;10.90;79.20
5808;DHT22;2930;42.678;23.312;2023-04-09T07:35:02;10.90;79.20
5808;DHT22;2930;42.678;23.312;2023-04-09T07:37:29;10.90;78.90
5808;DHT22;2930;42.678;23.312;2023-04-09T07:39:55;10.90;79.00
5808;DHT22;2930;42.678;23.312;2023-04-09T07:42:21;11.10;78.50
5808;DHT22;2930;42.678;23.312;2023-04-09T07:44:47;11.20;77.60
5808;DHT22;2930;42.678;23.312;2023-04-09T07:47:12;11.20;77.70
5808;DHT22;2930;42.678;23.312;2023-04-09T07:49:38;11.20;77.70
5808;DHT22;2930;42.678;23.312;2023-04-09T07:52:04;11.30;77.80
5808;DHT22;2930;42.678;23.312;2023-04-09T07:54:31;11.50;77.80
5808;DHT22;2930;42.678;23.312;2023-04-09T07:56:57;11.70;76.90
5808;DHT22;2930;42.678;23.312;2023-04-09T07:59:23;11.80;76.50
5808;DHT22;2930;42.678;23.312;2023-04-09T08:01:49;12.00;75.80
5808;DHT22;2930;42.678;23.312;2023-04-09T08:04:15;12.20;75.30
5808;DHT22;2930;42.678;23.312;2023-04-09T08:06:41;12.30;75.00
5808;DHT22;2930;42.678;23.312;2023-04-09T08:09:06;12.30;74.80
5808;DHT22;2930;42.678;23.312;2023-04-09T08:11:32;12.00;73.20
5808;DHT22;2930;42.678;23.312;2023-04-09T08:13:58;11.90;74.30
5808;DHT22;2930;42.678;23.312;2023-04-09T08:16:27;11.80;74.90
5808;DHT22;2930;42.678;23.312;2023-04-09T08:18:55;11.80;75.20
5808;DHT22;2930;42.678;23.312;2023-04-09T08:21:22;11.70;75.10
5808;DHT22;2930;42.678;23.312;2023-04-09T08:23:47;11.60;75.50
5808;DHT22;2930;42.678;23.312;2023-04-09T08:26:13;11.50;76.00
5808;DHT22;2930;42.678;23.312;2023-04-09T08:28:39;11.30;75.10
5808;DHT22;2930;42.678;23.312;2023-04-09T08:31:04;11.20;76.70
5808;DHT22;2930;42.678;23.312;2023-04-09T08:33:30;11.30;76.40
5808;DHT22;2930;42.678;23.312;2023-04-09T08:35:56;11.30;77.20
5808;DHT22;2930;42.678;23.312;2023-04-09T08:38:21;11.50;76.70
5808;DHT22;2930;42.678;23.312;2023-04-09T08:40:47;11.60;76.40
5808;DHT22;2930;42.678;23.312;2023-04-09T08:43:14;11.80;75.80
5808;DHT22;2930;42.678;23.312;2023-04-09T08:45:43;11.80;75.20
5808;DHT22;2930;42.678;23.312;2023-04-09T08:48:09;11.90;76.50
5808;DHT22;2930;42.678;23.312;2023-04-09T08:50:37;12.00;76.50
5808;DHT22;2930;42.678;23.312;2023-04-09T08:53:04;12.00;75.60
5808;DHT22;2930;42.678;23.312;2023-04-09T08:55:31;12.00;74.90
5808;DHT22;2930;42.678;23.312;2023-04-09T08:57:59;12.00;75.80
5808;DHT22;2930;42.678;23.312;2023-04-09T09:00:25;12.30;76.50
5808;DHT22;2930;42.678;23.312;2023-04-09T09:03:08;12.50;74.00
5808;DHT22;2930;42.678;23.312;2023-04-09T09:08:01;12.70;72.90
5808;DHT22;2930;42.678;23.312;2023-04-09T09:10:45;12.70;72.90
5808;DHT22;2930;42.678;23.312;2023-04-09T09:13:27;12.70;73.30
5808;DHT22;2930;42.678;23.312;2023-04-09T09:16:13;12.60;73.50
5808;DHT22;2930;42.678;23.312;2023-04-09T09:18:42;12.70;73.30
5808;DHT22;2930;42.678;23.312;2023-04-09T09:21:17;12.70;73.20
5808;DHT22;2930;42.678;23.312;2023-04-09T09:23:44;13.10;72.90
5808;DHT22;2930;42.678;23.312;2023-04-09T09:26:30;13.40;71.70
5808;DHT22;2930;42.678;23.312;2023-04-09T09:28:57;13.80;71.40
5808;DHT22;2930;42.678;23.312;2023-04-09T09:31:24;14.30;70.10
5808;DHT22;2930;42.678;23.312;2023-04-09T09:33:50;14.70;68.40
5808;DHT22;2930;42.678;23.312;2023-04-09T09:36:33;14.30;68.40
5808;DHT22;2930;42.678;23.312;2023-04-09T09:39:00;13.80;69.80
5808;DHT22;2930;42.678;23.312;2023-04-09T09:41:34;13.70;69.90
5808;DHT22;2930;42.678;23.312;2023-04-09T09:44:00;13.50;70.70
5808;DHT22;2930;42.678;23.312;2023-04-09T09:46:26;13.50;71.30
5808;DHT22;2930;42.678;23.312;2023-04-09T09:48:52;13.90;71.50
5808;DHT22;2930;42.678;23.312;2023-04-09T09:51:18;14.50;68.90
5808;DHT22;2930;42.678;23.312;2023-04-09T09:53:47;15.00;67.90
5808;DHT22;2930;42.678;23.312;2023-04-09T09:56:21;15.90;67.50
5808;DHT22;2930;42.678;23.312;2023-04-09T09:58:55;16.60;66.90
5808;DHT22;2930;42.678;23.312;2023-04-09T10:01:26;17.50;64.20
5808;DHT22;2930;42.678;23.312;2023-04-09T10:03:52;18.00;61.80
5808;DHT22;2930;42.678;23.312;2023-04-09T10:06:21;18.10;61.60
5808;DHT22;2930;42.678;23.312;2023-04-09T10:08:48;18.10;61.40
5808;DHT22;2930;42.678;23.312;2023-04-09T10:11:15;18.10;60.40
5808;DHT22;2930;42.678;23.312;2023-04-09T10:13:47;17.30;60.40
5808;DHT22;2930;42.678;23.312;2023-04-09T10:16:14;17.10;61.20
5808;DHT22;2930;42.678;23.312;2023-04-09T10:18:41;16.80;61.10
5808;DHT22;2930;42.678;23.312;2023-04-09T10:23:52;16.50;61.60
5808;DHT22;2930;42.678;23.312;2023-04-09T10:26:19;16.80;62.40
5808;DHT22;2930;42.678;23.312;2023-04-09T10:28:44;17.10;61.10
5808;DHT22;2930;42.678;23.312;2023-04-09T10:31:10;17.70;60.80
5808;DHT22;2930;42.678;23.312;2023-04-09T10:33:37;18.20;60.30
5808;DHT22;2930;42.678;23.312;2023-04-09T10:36:11;18.90;59.70
5808;DHT22;2930;42.678;23.312;2023-04-09T10:38:39;19.20;56.80
5808;DHT22;2930;42.678;23.312;2023-04-09T10:41:20;18.30;57.50
5808;DHT22;2930;42.678;23.312;2023-04-09T10:43:47;17.80;59.40
5808;DHT22;2930;42.678;23.312;2023-04-09T10:46:30;18.10;60.20
5808;DHT22;2930;42.678;23.312;2023-04-09T10:49:18;18.10;58.70
5808;DHT22;2930;42.678;23.312;2023-04-09T10:51:53;18.10;59.70
5808;DHT22;2930;42.678;23.312;2023-04-09T10:59:41;18.50;58.80
5808;DHT22;2930;42.678;23.312;2023-04-09T11:08:08;18.10;59.80
5808;DHT22;2930;42.678;23.312;2023-04-09T11:10:42;17.90;60.60
5808;DHT22;2930;42.678;23.312;2023-04-09T11:13:17;17.80;60.00
5808;DHT22;2930;42.678;23.312;2023-04-09T11:15:44;17.50;60.50
5808;DHT22;2930;42.678;23.312;2023-04-09T11:18:14;17.10;60.40
5808;DHT22;2930;42.678;23.312;2023-04-09T11:20:40;17.10;61.50
5808;DHT22;2930;42.678;23.312;2023-04-09T11:23:06;16.80;60.90
5808;DHT22;2930;42.678;23.312;2023-04-09T11:25:32;16.30;61.70
5808;DHT22;2930;42.678;23.312;2023-04-09T11:28:02;15.40;62.70
5808;DHT22;2930;42.678;23.312;2023-04-09T11:30:27;15.20;64.70
5808;DHT22;2930;42.678;23.312;2023-04-09T11:32:54;14.90;65.00
5808;DHT22;2930;42.678;23.312;2023-04-09T11:35:21;14.70;65.30
5808;DHT22;2930;42.678;23.312;2023-04-09T11:37:47;14.60;66.80
5808;DHT22;2930;42.678;23.312;2023-04-09T11:40:22;14.50;65.70
5808;DHT22;2930;42.678;23.312;2023-04-09T11:42:52;14.20;67.50
5808;DHT22;2930;42.678;23.312;2023-04-09T11:45:23;14.00;67.40
5808;DHT22;2930;42.678;23.312;2023-04-09T11:47:50;14.00;67.70
5808;DHT22;2930;42.678;23.312;2023-04-09T11:50:16;14.00;66.90
5808;DHT22;2930;42.678;23.312;2023-04-09T11:52:43;14.10;67.80
5808;DHT22;2930;42.678;23.312;2023-04-09T11:55:10;14.10;66.30
5808;DHT22;2930;42.678;23.312;2023-04-09T11:57:44;13.90;66.50
5808;DHT22;2930;42.678;23.312;2023-04-09T12:00:14;13.70;65.30
5808;DHT22;2930;42.678;23.312;2023-04-09T12:02:45;13.50;66.00
5808;DHT22;2930;42.678;23.312;2023-04-09T12:05:19;13.30;66.10
5808;DHT22;2930;42.678;23.312;2023-04-09T12:07:45;13.30;66.40
5808;DHT22;2930;42.678;23.312;2023-04-09T12:10:11;13.20;66.80
5808;DHT22;2930;42.678;23.312;2023-04-09T12:12:41;13.30;67.30
5808;DHT22;2930;42.678;23.312;2023-04-09T12:15:25;13.30;67.10
5808;DHT22;2930;42.678;23.312;2023-04-09T12:17:55;13.30;67.20
5808;DHT22;2930;42.678;23.312;2023-04-09T12:20:31;13.30;68.20
5808;DHT22;2930;42.678;23.312;2023-04-09T12:22:58;13.30;69.20
5808;DHT22;2930;42.678;23.312;2023-04-09T12:25:25;13.20;69.50
5808;DHT22;2930;42.678;23.312;2023-04-09T12:27:51;13.30;70.00
5808;DHT22;2930;42.678;23.312;2023-04-09T12:30:17;13.40;69.80
5808;DHT22;2930;42.678;23.312;2023-04-09T12:32:42;13.60;69.10
5808;DHT22;2930;42.678;23.312;2023-04-09T12:35:10;13.90;67.60
5808;DHT22;2930;42.678;23.312;2023-04-09T12:37:36;14.20;66.50
5808;DHT22;2930;42.678;23.312;2023-04-09T12:40:01;14.60;66.10
5808;DHT22;2930;42.678;23.312;2023-04-09T12:42:28;14.70;64.40
5808;DHT22;2930;42.678;23.312;2023-04-09T12:44:53;14.70;64.40
5808;DHT22;2930;42.678;23.312;2023-04-09T12:47:19;14.60;64.70
5808;DHT22;2930;42.678;23.312;2023-04-09T12:49:45;14.30;64.80
5808;DHT22;2930;42.678;23.312;2023-04-09T12:52:11;14.40;64.90
5808;DHT22;2930;42.678;23.312;2023-04-09T12:54:37;14.40;65.30
5808;DHT22;2930;42.678;23.312;2023-04-09T12:57:04;14.40;64.90
5808;DHT22;2930;42.678;23.312;2023-04-09T12:59:30;14.10;64.80
5808;DHT22;2930;42.678;23.312;2023-04-09T13:01:56;14.00;65.20
5808;DHT22;2930;42.678;23.312;2023-04-09T13:04:22;13.90;65.70
5808;DHT22;2930;42.678;23.312;2023-04-09T13:06:47;13.70;65.40
5808;DHT22;2930;42.678;23.312;2023-04-09T13:09:13;13.60;65.80
5808;DHT22;2930;42.678;23.312;2023-04-09T13:11:39;13.70;66.20
5808;DHT22;2930;42.678;23.312;2023-04-09T13:14:05;13.80;66.20
5808;DHT22;2930;42.678;23.312;2023-04-09T13:16:31;13.90;66.10
5808;DHT22;2930;42.678;23.312;2023-04-09T13:18:57;13.80;65.90
5808;DHT22;2930;42.678;23.312;2023-04-09T13:21:23;13.60;65.30
5808;DHT22;2930;42.678;23.312;2023-04-09T13:23:48;13.30;65.00
5808;DHT22;2930;42.678;23.312;2023-04-09T13:26:14;13.20;65.30
5808;DHT22;2930;42.678;23.312;2023-04-09T13:28:40;13.10;65.80
5808;DHT22;2930;42.678;23.312;2023-04-09T13:31:06;13.30;66.50
5808;DHT22;2930;42.678;23.312;2023-04-09T13:33:31;13.50;66.80
5808;DHT22;2930;42.678;23.312;2023-04-09T13:35:57;13.70;66.50
5808;DHT22;2930;42.678;23.312;2023-04-09T13:38:23;13.90;66.00
5808;DHT22;2930;42.678;23.312;2023-04-09T13:40:49;14.00;66.40
5808;DHT22;2930;42.678;23.312;2023-04-09T13:43:14;14.20;66.20
5808;DHT22;2930;42.678;23.312;2023-04-09T13:45:40;14.30;65.90
5808;DHT22;2930;42.678;23.312;2023-04-09T13:48:06;14.30;65.70
5808;DHT22;2930;42.678;23.312;2023-04-09T13:50:32;14.30;65.50
5808;DHT22;2930;42.678;23.312;2023-04-09T13:52:58;14.40;65.80
5808;DHT22;2930;42.678;23.312;2023-04-09T13:55:23;14.50;66.60
5808;DHT22;2930;42.678;23.312;2023-04-09T13:57:49;14.50;67.00
5808;DHT22;2930;42.678;23.312;2023-04-09T14:00:15;14.60;67.00
5808;DHT22;2930;42.678;23.312;2023-04-09T14:02:41;14.60;67.00
5808;DHT22;2930;42.678;23.312;2023-04-09T14:05:07;14.70;67.00
5808;DHT22;2930;42.678;23.312;2023-04-09T14:07:33;14.70;66.60
5808;DHT22;2930;42.678;23.312;2023-04-09T14:09:59;14.60;66.60
5808;DHT22;2930;42.678;23.312;2023-04-09T14:12:24;14.40;65.20
5808;DHT22;2930;42.678;23.312;2023-04-09T14:14:50;14.00;65.80
5808;DHT22;2930;42.678;23.312;2023-04-09T14:17:16;13.90;65.70
5808;DHT22;2930;42.678;23.312;2023-04-09T14:19:42;13.60;65.70
5808;DHT22;2930;42.678;23.312;2023-04-09T14:22:07;13.50;66.00
5808;DHT22;2930;42.678;23.312;2023-04-09T14:24:34;13.20;66.10
5808;DHT22;2930;42.678;23.312;2023-04-09T14:27:05;13.00;66.80
5808;DHT22;2930;42.678;23.312;2023-04-09T14:29:31;13.00;67.20
5808;DHT22;2930;42.678;23.312;2023-04-09T14:31:56;13.20;67.10
5808;DHT22;2930;42.678;23.312;2023-04-09T14:34:22;13.20;67.10
5808;DHT22;2930;42.678;23.312;2023-04-09T14:36:48;13.20;67.30
5808;DHT22;2930;42.678;23.312;2023-04-09T14:39:14;13.20;67.00
5808;DHT22;2930;42.678;23.312;2023-04-09T14:41:40;13.40;67.20
5808;DHT22;2930;42.678;23.312;2023-04-09T14:44:06;13.50;68.30
5808;DHT22;2930;42.678;23.312;2023-04-09T14:46:31;13.70;67.80
5808;DHT22;2930;42.678;23.312;2023-04-09T14:48:57;13.80;70.30
5808;DHT22;2930;42.678;23.312;2023-04-09T14:51:23;14.00;67.80
5808;DHT22;2930;42.678;23.312;2023-04-09T14:53:48;14.00;66.30
5808;DHT22;2930;42.678;23.312;2023-04-09T14:56:14;13.90;66.00
5808;DHT22;2930;42.678;23.312;2023-04-09T14:58:39;14.00;67.20
5808;DHT22;2930;42.678;23.312;2023-04-09T15:01:05;14.10;66.60
5808;DHT22;2930;42.678;23.312;2023-04-09T15:03:31;14.00;65.80
5808;DHT22;2930;42.678;23.312;2023-04-09T15:05:58;14.10;66.10
5808;DHT22;2930;42.678;23.312;2023-04-09T15:08:23;14.20;65.90
5808;DHT22;2930;42.678;23.312;2023-04-09T15:10:49;14.10;65.70
5808;DHT22;2930;42.678;23.312;2023-04-09T15:13:15;14.10;65.20
5808;DHT22;2930;42.678;23.312;2023-04-09T15:15:41;14.20;65.50
5808;DHT22;2930;42.678;23.312;2023-04-09T15:18:08;14.10;64.40
5808;DHT22;2930;42.678;23.312;2023-04-09T15:20:38;13.90;64.20
5808;DHT22;2930;42.678;23.312;2023-04-09T15:23:04;13.80;65.00
5808;DHT22;2930;42.678;23.312;2023-04-09T15:25:30;13.80;65.20
5808;DHT22;2930;42.678;23.312;2023-04-09T15:27:55;13.80;64.60
5808;DHT22;2930;42.678;23.312;2023-04-09T15:30:21;13.60;64.60
5808;DHT22;2930;42.678;23.312;2023-04-09T15:32:47;13.50;64.80
5808;DHT22;2930;42.678;23.312;2023-04-09T15:35:12;13.30;64.50
5808;DHT22;2930;42.678;23.312;2023-04-09T15:37:43;13.10;65.10
5808;DHT22;2930;42.678;23.312;2023-04-09T15:40:09;13.20;65.20
5808;DHT22;2930;42.678;23.312;2023-04-09T15:42:35;13.00;65.20
5808;DHT22;2930;42.678;23.312;2023-04-09T15:45:00;13.10;65.50
5808;DHT22;2930;42.678;23.312;2023-04-09T15:47:26;13.20;65.10
5808;DHT22;2930;42.678;23.312;2023-04-09T15:49:51;12.90;64.30
5808;DHT22;2930;42.678;23.312;2023-04-09T15:52:17;13.00;65.00
5808;DHT22;2930;42.678;23.312;2023-04-09T15:54:43;13.00;66.20
5808;DHT22;2930;42.678;23.312;2023-04-09T15:57:08;13.10;71.40
5808;DHT22;2930;42.678;23.312;2023-04-09T15:59:34;13.00;72.30
5808;DHT22;2930;42.678;23.312;2023-04-09T16:02:01;13.00;72.30
5808;DHT22;2930;42.678;23.312;2023-04-09T16:04:28;12.90;72.80
5808;DHT22;2930;42.678;23.312;2023-04-09T16:06:54;12.90;73.20
5808;DHT22;2930;42.678;23.312;2023-04-09T16:09:20;12.90;73.00
5808;DHT22;2930;42.678;23.312;2023-04-09T16:11:46;12.90;73.30
5808;DHT22;2930;42.678;23.312;2023-04-09T16:14:12;12.80;73.90
5808;DHT22;2930;42.678;23.312;2023-04-09T16:16:37;12.80;74.10